.
WxDataArchive / Data Records for 2011-01-13
2011-01-12 January 2011 2011-01-14

Data Records for Thursday, 13 January 2011

Time	Temp	Chill	HIndex	Humid	Dewpt	 Wind 	HiWind	WindDir	Rain 	Barom 
-----	----	-----	------	-----	-----	------	------	-------	-----	----- 
00:00	17.0	17.0	17.0	84	13.0	0	1	225	0.00	30.434 
00:05	17.0	17.0	17.0	84	13.0	0	0	---	0.00	30.434 
00:10	16.9	16.9	16.9	84	12.9	0	0	---	0.00	30.434 
00:15	16.7	16.7	16.7	84	12.7	0	1	225	0.00	30.429 
00:20	16.5	16.5	16.5	84	12.5	0	0	---	0.00	30.429 
00:25	16.2	16.2	16.2	84	12.2	0	0	---	0.00	30.429 
00:30	15.9	15.9	15.9	84	11.9	0	0	---	0.00	30.428 
00:35	15.6	15.6	15.6	84	11.6	0	0	---	0.00	30.428 
00:40	15.9	15.9	15.9	85	12.2	0	0	---	0.00	30.428 
00:45	16.1	16.1	16.1	85	12.4	0	1	225	0.00	30.434 
00:50	16.2	16.2	16.2	85	12.5	0	1	225	0.00	30.434 
00:55	16.5	16.5	16.5	86	13.1	0	1	225	0.00	30.434 
01:00	16.9	16.9	16.9	86	13.5	0	1	225	0.00	30.433 
01:05	17.2	17.2	17.2	86	13.7	0	0	---	0.00	30.433 
01:10	17.2	17.2	17.2	86	13.7	0	0	---	0.00	30.433 
01:15	17.2	17.2	17.2	86	13.7	0	0	---	0.00	30.430 
01:20	17.0	17.0	17.0	86	13.6	0	0	---	0.00	30.430 
01:25	17.2	17.2	17.2	86	13.7	0	0	---	0.00	30.430 
01:30	17.2	17.2	17.2	86	13.7	0	0	---	0.00	30.433 
01:35	17.3	17.3	17.3	86	13.8	0	0	---	0.00	30.433 
01:40	17.5	17.5	17.5	86	14.0	0	0	---	0.00	30.433 
01:45	17.7	17.7	17.7	86	14.2	0	0	---	0.00	30.430 
01:50	17.8	17.8	17.8	86	14.3	0	0	---	0.00	30.430 
01:55	18.0	18.0	18.0	86	14.5	0	0	---	0.00	30.430 
02:00	18.1	18.1	18.1	86	14.6	0	0	---	0.00	30.435 
02:05	18.3	18.3	18.3	86	14.8	0	0	---	0.00	30.435 
02:10	18.3	18.3	18.3	85	14.6	0	0	---	0.00	30.435 
02:15	18.3	18.3	18.3	85	14.6	0	0	---	0.00	30.438 
02:20	18.6	18.6	18.6	86	15.1	0	0	---	0.00	30.438 
02:25	18.9	18.9	18.9	86	15.4	0	0	---	0.00	30.438 
02:30	19.2	19.2	19.2	85	15.4	0	0	---	0.00	30.443 
02:35	19.5	19.5	19.5	85	15.7	0	1	225	0.00	30.443 
02:40	19.7	19.7	19.7	84	15.7	0	0	---	0.00	30.443 
02:45	20.0	20.0	20.0	84	16.0	0	0	---	0.00	30.448 
02:50	20.2	20.2	20.2	83	15.9	0	0	---	0.00	30.448 
02:55	20.3	20.3	20.3	83	16.0	0	0	---	0.00	30.448 
03:00	20.3	20.3	20.3	82	15.7	0	0	---	0.00	30.451 
03:05	20.2	20.2	20.2	82	15.6	0	0	---	0.00	30.451 
03:10	20.0	20.0	20.0	81	15.1	0	0	---	0.00	30.451 
03:15	19.9	19.9	19.9	81	15.0	0	0	---	0.00	30.455 
03:20	19.7	19.7	19.7	81	14.8	0	0	---	0.00	30.455 
03:25	19.7	19.7	19.7	82	15.1	0	0	---	0.00	30.455 
03:30	19.7	19.7	19.7	82	15.1	0	0	---	0.00	30.455 
03:35	19.7	19.7	19.7	82	15.1	0	0	---	0.00	30.455 
03:40	19.9	19.9	19.9	83	15.6	0	0	---	0.00	30.455 
03:45	20.0	20.0	20.0	83	15.7	0	0	---	0.00	30.457 
03:50	20.0	20.0	20.0	83	15.7	0	0	---	0.00	30.457 
03:55	20.0	20.0	20.0	83	15.7	0	0	---	0.00	30.457 
04:00	20.0	20.0	20.0	83	15.7	0	0	---	0.00	30.455 
04:05	20.0	20.0	20.0	83	15.7	0	0	---	0.00	30.455 
04:10	20.2	20.2	20.2	84	16.2	0	0	---	0.00	30.455 
04:15	20.3	20.3	20.3	84	16.3	0	0	---	0.00	30.454 
04:20	20.6	20.6	20.6	85	16.8	0	0	---	0.00	30.454 
04:25	20.8	20.8	20.8	85	17.0	0	0	---	0.00	30.454 
04:30	21.1	21.1	21.1	86	17.6	0	0	---	0.00	30.455 
04:35	21.3	21.3	21.3	86	17.8	0	0	---	0.00	30.455 
04:40	21.6	21.6	21.6	86	18.1	0	0	---	0.00	30.455 
04:45	21.6	21.6	21.6	87	18.3	0	0	---	0.00	30.451 
04:50	21.9	21.9	21.9	87	18.6	0	0	---	0.00	30.451 
04:55	21.9	21.9	21.9	87	18.6	0	0	---	0.00	30.451 
05:00	22.1	22.1	22.1	88	19.1	0	0	---	0.00	30.450 
05:05	22.2	22.2	22.2	88	19.2	0	0	---	0.00	30.450 
05:10	22.2	22.2	22.2	88	19.2	0	0	---	0.00	30.450 
05:15	22.4	22.4	22.4	88	19.4	0	0	---	0.00	30.451 
05:20	22.5	22.5	22.5	88	19.5	0	0	---	0.00	30.451 
05:25	22.5	22.5	22.5	88	19.5	0	0	---	0.00	30.451 
05:30	22.5	22.5	22.5	88	19.5	0	0	---	0.00	30.453 
05:35	22.7	22.7	22.7	89	20.0	0	0	---	0.00	30.453 
05:40	22.7	22.7	22.7	89	20.0	0	1	225	0.00	30.453 
05:45	22.9	22.9	22.9	89	20.2	0	1	225	0.00	30.458 
05:50	22.9	22.9	22.9	89	20.2	0	1	225	0.00	30.458 
05:55	23.0	23.0	23.0	89	20.3	0	2	225	0.00	30.458 
06:00	23.2	23.2	23.2	89	20.4	0	2	225	0.00	30.461 
06:05	23.2	23.2	23.2	89	20.4	0	1	225	0.00	30.461 
06:10	23.2	23.2	23.2	89	20.4	0	1	225	0.00	30.461 
06:15	23.2	23.2	23.2	89	20.4	1	3	225	0.00	30.464 
06:20	23.0	23.0	23.0	89	20.3	0	2	248	0.00	30.464 
06:25	23.0	23.0	23.0	89	20.3	0	3	248	0.00	30.464 
06:30	22.9	22.9	22.9	89	20.2	0	2	248	0.00	30.464 
06:35	22.9	22.9	22.9	89	20.2	0	2	248	0.00	30.464 
06:40	22.4	22.4	22.4	88	19.4	0	2	248	0.00	30.464 
06:45	22.1	22.1	22.1	88	19.1	0	2	248	0.00	30.468 
06:50	21.8	21.8	21.8	88	18.8	1	2	248	0.00	30.468 
06:55	21.4	21.4	21.4	87	18.1	1	2	248	0.00	30.468 
07:00	21.1	21.1	21.1	87	17.8	0	1	248	0.00	30.474 
07:05	21.1	21.1	21.1	87	17.8	0	1	248	0.00	30.474 
07:10	21.0	21.0	21.0	87	17.8	0	2	248	0.00	30.474 
07:15	20.8	20.8	20.8	87	17.6	0	1	248	0.00	30.484 
07:20	20.6	20.6	20.6	87	17.4	0	1	248	0.00	30.484 
07:25	20.5	20.5	20.5	86	17.0	1	4	248	0.00	30.484 
07:30	20.2	20.2	20.2	86	16.7	0	2	248	0.00	30.485 
07:35	20.0	20.0	20.0	86	16.5	0	1	248	0.00	30.485 
07:40	19.9	19.9	19.9	86	16.4	0	2	248	0.00	30.485 
07:45	19.7	19.7	19.7	86	16.2	0	1	248	0.00	30.488 
07:50	19.5	19.5	19.5	86	16.0	0	3	248	0.00	30.488 
07:55	19.4	19.4	19.4	86	15.9	1	3	248	0.00	30.488 
08:00	19.2	19.2	19.2	85	15.4	0	3	248	0.00	30.501 
08:05	19.1	19.1	19.1	85	15.3	0	2	248	0.00	30.501 
08:10	18.8	18.8	18.8	85	15.1	1	3	248	0.00	30.501 
08:15	18.4	18.4	18.4	85	14.7	0	3	248	0.00	30.505 
08:20	18.3	18.3	18.3	84	14.3	1	3	248	0.00	30.505 
08:25	18.1	18.1	18.1	84	14.1	0	2	248	0.00	30.505 
08:30	18.0	18.0	18.0	84	14.0	1	3	248	0.00	30.511 
08:35	18.0	18.0	18.0	84	14.0	0	2	248	0.00	30.511 
08:40	17.8	17.8	17.8	84	13.8	1	2	248	0.00	30.511 
08:45	17.8	17.8	17.8	84	13.8	0	2	248	0.00	30.518 
08:50	18.0	18.0	18.0	84	14.0	1	2	248	0.00	30.518 
08:55	17.8	17.8	17.8	84	13.8	0	2	248	0.00	30.518 
09:00	17.8	17.8	17.8	84	13.8	1	3	248	0.00	30.520 
09:05	17.8	17.8	17.8	84	13.8	1	3	248	0.00	30.520 
09:10	17.8	17.8	17.8	84	13.8	1	4	248	0.00	30.520 
09:15	18.0	18.0	18.0	84	14.0	1	3	248	0.00	30.531 
09:20	18.0	18.0	18.0	84	14.0	1	3	248	0.00	30.531 
09:25	18.1	18.1	18.1	84	14.1	1	4	248	0.00	30.531 
09:30	18.1	18.1	18.1	84	14.1	1	3	248	0.00	30.535 
09:35	18.3	18.3	18.3	84	14.3	0	2	248	0.00	30.535 
09:40	18.4	18.4	18.4	84	14.4	0	2	248	0.00	30.535 
09:45	18.6	18.6	18.6	84	14.6	0	2	248	0.00	30.535 
09:50	18.6	18.6	18.6	84	14.6	0	1	248	0.00	30.535 
09:55	18.9	18.9	18.9	84	14.9	1	3	248	0.00	30.535 
10:00	19.1	19.1	19.1	84	15.1	1	2	248	0.00	30.532 
10:05	19.2	19.2	19.2	84	15.2	1	2	248	0.00	30.532 
10:10	19.4	19.4	19.4	84	15.4	0	3	248	0.00	30.532 
10:15	19.7	19.7	19.7	83	15.4	1	2	248	0.00	30.535 
10:20	19.7	19.7	19.7	83	15.4	1	4	270	0.00	30.535 
10:25	19.7	19.7	19.7	82	15.1	1	4	248	0.00	30.535 
10:30	19.9	19.9	19.9	82	15.3	1	3	248	0.00	30.534 
10:35	20.2	20.2	20.2	82	15.6	1	3	248	0.00	30.534 
10:40	20.3	20.3	20.3	82	15.7	1	5	248	0.00	30.534 
10:45	20.6	20.6	20.6	81	15.7	2	5	248	0.00	30.533 
10:50	20.6	20.6	20.6	81	15.7	1	3	292	0.00	30.533 
10:55	20.6	20.6	20.6	81	15.7	2	3	248	0.00	30.533 
11:00	20.8	20.8	20.8	81	15.9	1	3	248	0.00	30.531 
11:05	21.1	21.1	21.1	81	16.2	1	4	248	0.00	30.531 
11:10	21.4	21.4	21.4	81	16.5	2	5	248	0.00	30.531 
11:15	21.4	21.4	21.4	80	16.2	1	2	248	0.00	30.532 
11:20	21.4	21.4	21.4	81	16.5	1	2	270	0.00	30.532 
11:25	21.4	21.4	21.4	81	16.5	1	5	248	0.00	30.532 
11:30	21.4	21.4	21.4	81	16.5	1	2	248	0.00	30.525 
11:35	21.6	21.6	21.6	81	16.7	1	4	248	0.00	30.525 
11:40	21.8	21.8	21.8	81	16.9	1	2	270	0.00	30.525 
11:45	22.1	22.1	22.1	81	17.2	0	4	270	0.00	30.519 
11:50	22.4	22.4	22.4	81	17.5	1	4	248	0.00	30.519 
11:55	22.7	22.7	22.7	81	17.8	2	5	248	0.00	30.519 
12:00	22.9	22.9	22.9	80	17.7	1	4	225	0.00	30.509 
12:05	23.2	23.2	23.2	80	18.0	1	4	225	0.00	30.509 
12:10	23.6	23.6	23.6	79	18.1	1	4	248	0.00	30.509 
12:15	23.5	23.5	23.5	77	17.4	2	4	292	0.00	30.505 
12:20	23.3	23.3	23.3	77	17.2	2	3	248	0.00	30.505 
12:25	23.3	23.3	23.3	78	17.5	2	6	248	0.00	30.505 
12:30	23.2	23.2	23.2	78	17.4	2	4	248	0.00	30.504 
12:35	22.9	22.9	22.9	79	17.4	2	4	248	0.00	30.504 
12:40	22.4	22.4	22.4	79	16.9	1	3	248	0.00	30.504 
12:45	22.4	22.4	22.4	81	17.5	2	7	248	0.00	30.501 
12:50	22.1	22.1	22.1	81	17.2	2	4	270	0.00	30.501 
12:55	22.2	22.2	22.2	81	17.3	2	4	248	0.00	30.501 
13:00	22.2	22.2	22.2	80	17.0	2	3	248	0.00	30.496 
13:05	22.2	22.2	22.2	80	17.0	2	4	248	0.00	30.496 
13:10	22.4	22.4	22.4	80	17.2	2	3	248	0.00	30.496 
13:15	22.5	22.5	22.5	78	16.7	2	5	248	0.00	30.495 
13:20	22.5	22.5	22.5	77	16.4	2	6	248	0.00	30.495 
13:25	22.7	22.7	22.7	76	16.3	2	4	248	0.00	30.495 
13:30	22.7	22.7	22.7	76	16.3	2	4	248	0.00	30.492 
13:35	23.0	23.0	23.0	75	16.3	2	6	270	0.00	30.492 
13:40	23.0	23.0	23.0	74	16.0	2	5	270	0.00	30.492 
13:45	23.2	23.2	23.2	73	15.9	2	4	248	0.00	30.488 
13:50	23.3	23.3	23.3	73	15.9	2	5	248	0.00	30.488 
13:55	23.3	23.3	23.3	72	15.6	2	4	248	0.00	30.488 
14:00	23.5	23.5	23.5	71	15.5	3	6	248	0.00	30.481 
14:05	23.6	23.6	23.6	70	15.3	2	5	248	0.00	30.481 
14:10	23.6	23.6	23.6	69	14.9	2	4	248	0.00	30.481 
14:15	23.8	23.8	23.8	69	15.1	2	5	248	0.00	30.470 
14:20	23.9	23.9	23.9	69	15.2	2	5	248	0.00	30.470 
14:25	24.2	24.2	24.2	69	15.5	2	5	248	0.00	30.470 
14:30	24.2	24.2	24.2	68	15.2	2	4	248	0.00	30.466 
14:35	24.1	24.1	24.1	68	15.1	2	4	248	0.00	30.466 
14:40	24.2	24.2	24.2	67	14.8	2	6	248	0.00	30.466 
14:45	24.4	24.4	24.4	67	15.0	1	3	248	0.00	30.456 
14:50	24.5	24.5	24.5	68	15.5	1	2	248	0.00	30.456 
14:55	24.7	24.7	24.7	67	15.3	1	3	248	0.00	30.456 
15:00	24.7	24.7	24.7	66	15.0	1	3	270	0.00	30.462 
15:05	24.5	24.5	24.5	67	15.1	1	2	270	0.00	30.462 
15:10	24.5	24.5	24.5	67	15.1	2	4	248	0.00	30.462 
15:15	24.5	24.5	24.5	66	14.8	2	4	270	0.00	30.465 
15:20	24.5	24.5	24.5	65	14.4	2	4	248	0.00	30.465 
15:25	24.5	24.5	24.5	66	14.8	1	3	248	0.00	30.465 
15:30	24.5	24.5	24.5	65	14.4	2	4	248	0.00	30.465 
15:35	24.2	24.2	24.2	65	14.2	2	3	248	0.00	30.465 
15:40	23.9	23.9	23.9	66	14.2	2	3	248	0.00	30.465 
15:45	23.8	23.8	23.8	66	14.1	2	5	248	0.00	30.469 
15:50	23.5	23.5	23.5	67	14.2	2	4	270	0.00	30.469 
15:55	23.6	23.6	23.6	67	14.3	1	5	248	0.00	30.469 
16:00	23.6	23.6	23.6	66	13.9	2	6	248	0.00	30.469 
16:05	23.5	23.5	23.5	67	14.2	2	4	248	0.00	30.469 
16:10	23.3	23.3	23.3	67	14.0	2	4	248	0.00	30.469 
16:15	23.2	23.2	23.2	66	13.6	1	3	248	0.00	30.468 
16:20	23.0	23.0	23.0	67	13.7	2	4	248	0.00	30.468 
16:25	22.9	22.9	22.9	67	13.6	2	4	248	0.00	30.468 
16:30	22.5	22.5	22.5	67	13.2	2	3	248	0.00	30.466 
16:35	22.4	22.4	22.4	68	13.5	1	3	248	0.00	30.466 
16:40	22.2	22.2	22.2	68	13.3	1	4	248	0.00	30.466 
16:45	22.2	22.2	22.2	68	13.3	1	2	248	0.00	30.459 
16:50	22.1	22.1	22.1	69	13.5	0	1	248	0.00	30.459 
16:55	21.9	21.9	21.9	69	13.3	0	1	248	0.00	30.459 
17:00	21.9	21.9	21.9	69	13.3	0	1	248	0.00	30.461 
17:05	21.9	21.9	21.9	70	13.6	0	2	248	0.00	30.461 
17:10	21.8	21.8	21.8	70	13.5	0	2	248	0.00	30.461 
17:15	21.6	21.6	21.6	70	13.4	0	2	248	0.00	30.465 
17:20	21.6	21.6	21.6	71	13.7	0	3	248	0.00	30.465 
17:25	21.4	21.4	21.4	70	13.2	1	4	248	0.00	30.465 
17:30	21.4	21.4	21.4	70	13.2	1	3	248	0.00	30.461 
17:35	21.3	21.3	21.3	71	13.4	1	2	248	0.00	30.461 
17:40	21.1	21.1	21.1	71	13.2	1	4	248	0.00	30.461 
17:45	21.1	21.1	21.1	71	13.2	0	2	248	0.00	30.463 
17:50	21.0	21.0	21.0	72	13.4	0	2	248	0.00	30.463 
17:55	21.0	21.0	21.0	72	13.4	1	2	248	0.00	30.463 
18:00	20.8	20.8	20.8	72	13.2	1	3	248	0.00	30.468 
18:05	20.8	20.8	20.8	73	13.5	1	4	248	0.00	30.468 
18:10	20.8	20.8	20.8	73	13.5	1	3	248	0.00	30.468 
18:15	20.6	20.6	20.6	73	13.3	1	4	270	0.00	30.470 
18:20	20.6	20.6	20.6	73	13.3	0	2	270	0.00	30.470 
18:25	20.6	20.6	20.6	74	13.7	1	4	248	0.00	30.470 
18:30	20.6	20.6	20.6	74	13.7	1	2	248	0.00	30.471 
18:35	20.5	20.5	20.5	75	13.9	0	2	248	0.00	30.471 
18:40	20.5	20.5	20.5	75	13.9	1	3	270	0.00	30.471 
18:45	20.5	20.5	20.5	75	13.9	1	5	248	0.00	30.470 
18:50	20.3	20.3	20.3	76	14.0	1	4	248	0.00	30.470 
18:55	20.3	20.3	20.3	76	14.0	1	3	248	0.00	30.470 
19:00	20.2	20.2	20.2	76	13.9	1	4	248	0.00	30.470 
19:05	20.2	20.2	20.2	76	13.9	1	6	248	0.00	30.470 
19:10	20.2	20.2	20.2	76	13.9	2	5	248	0.00	30.470 
19:15	20.0	20.0	20.0	77	14.0	1	3	248	0.00	30.469 
19:20	20.0	20.0	20.0	77	14.0	2	4	248	0.00	30.469 
19:25	20.0	20.0	20.0	77	14.0	1	3	248	0.00	30.469 
19:30	20.0	20.0	20.0	77	14.0	2	4	248	0.00	30.460 
19:35	19.9	19.9	19.9	77	13.9	1	3	248	0.00	30.460 
19:40	19.9	19.9	19.9	78	14.2	1	5	248	0.00	30.460 
19:45	19.9	19.9	19.9	78	14.2	0	1	248	0.00	30.459 
19:50	19.7	19.7	19.7	78	14.0	1	4	225	0.00	30.459 
19:55	19.7	19.7	19.7	79	14.3	0	2	225	0.00	30.459 
20:00	19.5	19.5	19.5	79	14.1	1	5	225	0.00	30.456 
20:05	19.4	19.4	19.4	79	14.0	0	2	248	0.00	30.456 
20:10	19.4	19.4	19.4	79	14.0	1	3	248	0.00	30.456 
20:15	19.2	19.2	19.2	79	13.8	0	3	248	0.00	30.449 
20:20	19.1	19.1	19.1	79	13.7	0	3	248	0.00	30.449 
20:25	19.1	19.1	19.1	80	14.0	0	1	248	0.00	30.449 
20:30	19.1	19.1	19.1	80	14.0	0	3	248	0.00	30.451 
20:35	18.9	18.9	18.9	80	13.8	0	3	248	0.00	30.451 
20:40	18.9	18.9	18.9	81	14.1	1	4	248	0.00	30.451 
20:45	18.8	18.8	18.8	81	14.0	1	3	248	0.00	30.450 
20:50	18.8	18.8	18.8	81	14.0	0	2	225	0.00	30.450 
20:55	18.6	18.6	18.6	81	13.8	1	3	225	0.00	30.450 
21:00	18.6	18.6	18.6	82	14.0	0	2	248	0.00	30.446 
21:05	18.4	18.4	18.4	82	13.8	1	4	248	0.00	30.446 
21:10	18.4	18.4	18.4	82	13.8	0	2	225	0.00	30.446 
21:15	18.3	18.3	18.3	82	13.7	0	2	248	0.00	30.439 
21:20	18.3	18.3	18.3	82	13.7	0	0	---	0.00	30.439 
21:25	18.3	18.3	18.3	83	14.0	0	2	248	0.00	30.439 
21:30	18.1	18.1	18.1	83	13.8	0	1	248	0.00	30.433 
21:35	18.1	18.1	18.1	83	13.8	0	1	248	0.00	30.433 
21:40	18.1	18.1	18.1	83	13.8	0	1	248	0.00	30.433 
21:45	18.0	18.0	18.0	83	13.7	0	1	248	0.00	30.434 
21:50	18.0	18.0	18.0	83	13.7	0	1	248	0.00	30.434 
21:55	17.8	17.8	17.8	83	13.5	0	1	248	0.00	30.434 
22:00	17.8	17.8	17.8	83	13.5	0	1	248	0.00	30.431 
22:05	17.8	17.8	17.8	83	13.5	0	2	248	0.00	30.431 
22:10	17.8	17.8	17.8	83	13.5	0	0	---	0.00	30.431 
22:15	17.8	17.8	17.8	83	13.5	0	3	248	0.00	30.418 
22:20	17.7	17.7	17.7	83	13.4	0	3	270	0.00	30.418 
22:25	17.7	17.7	17.7	83	13.4	0	2	270	0.00	30.418 
22:30	17.7	17.7	17.7	82	13.2	0	3	248	0.00	30.417 
22:35	17.5	17.5	17.5	81	12.7	1	5	248	0.00	30.417 
22:40	17.5	17.5	17.5	81	12.7	1	4	248	0.00	30.417 
22:45	17.5	17.5	17.5	81	12.7	0	3	248	0.00	30.419 
22:50	17.5	17.5	17.5	81	12.7	0	2	270	0.00	30.419 
22:55	17.3	17.3	17.3	80	12.2	1	5	248	0.00	30.419 
23:00	17.3	17.3	17.3	80	12.2	0	2	248	0.00	30.415 
23:05	17.3	17.3	17.3	80	12.2	0	1	248	0.00	30.415 
23:10	17.3	17.3	17.3	80	12.2	0	2	248	0.00	30.415 
23:15	17.3	17.3	17.3	80	12.2	0	2	248	0.00	30.411 
23:20	17.3	17.3	17.3	80	12.2	0	2	248	0.00	30.411 
23:25	17.3	17.3	17.3	80	12.2	0	2	248	0.00	30.411 
23:30	17.3	17.3	17.3	80	12.2	1	3	248	0.00	30.411 
23:35	17.3	17.3	17.3	79	11.9	0	2	248	0.00	30.411 
23:40	17.3	17.3	17.3	79	11.9	0	3	248	0.00	30.411 
23:45	17.3	17.3	17.3	79	11.9	0	3	248	0.00	30.410 
23:50	17.2	17.2	17.2	79	11.8	0	4	248	0.00	30.410 
23:55	17.2	17.2	17.2	78	11.5	1	3	248	0.00	30.410 

CoCoRaHS
IN-AL-39
A2 Web Hosting
Creative Commons License
GoDaddy
search engine by freefind advanced

loaded 2018-11-15 03:50:59 • last modified 2010-11-18 10:43:29
Privacy PolicyDisclaimer
• wx.awcolley.com is powered by PmWiki v.2002016 •
• all content (unless otherwise noted) © 2018 A W Colley